Airfield :
LOGIN :

Register | Disclaimer

   EN    FR    IT 

 










Legend :    VFR   Marginal VFR   IFR   Intensive IFR   Very Intensive IFR
Visi :
Ceiling :
>= 8 km
>= 3000ft
5 to 8 km
1000 to 3000 ft
1500m to 5 km
500 to 1000 ft
800 to 1500m
200 to 500 ft
< 800m
< 200 ft
Symbols :   Thunderstorms  Fog  Heavy snow  Heavy precipitations  Wind > 20 kt
SIGMETs :     Misc.  Thunderstorms  Icing  Turbulence  Mountain Waves  Volcanic Ashes







- Airport Elevation : 821 ft
- IATA code : LYS
- Download approach charts


LFLL - Lyon St Exupéry / Satolas

CURRENT METAR :
  • 231730Z 11002KT CAVOK 10/03 Q1028 NOSIG

EXPIRED METARs :
  • 231700Z 06004KT 350V090 CAVOK 10/03 Q1028 NOSIG
  • 231630Z 06003KT 350V160 CAVOK 11/03 Q1028 NOSIG
  • 231600Z 05003KT 350V060 CAVOK 11/03 Q1028 NOSIG
  • 231530Z 01004KT CAVOK 11/03 Q1027 NOSIG
  • 231500Z 02005KT CAVOK 11/03 Q1027 NOSIG

TAF TAF LFLL
Valid from the 23 at 18:00 until the 25 at 00:00 UTC


231700Z 2318/2424 VRB02KT CAVOK
PROB30
TEMPO 2403/2408 0600 BCFG
BECMG 2410/2412 18012KT
BECMG 2412/2414 18015G25KT
PROB40
TEMPO 2416/2420 18020G35KT
No reported NOTAMs for that airfield.



MET'MAP, your aeronautical weather chart ! - Copyright ORBIFLY December 2007 - Disclaimer

ORBIFLY MET'MAP TEAM :

Programming & Development : Alexandra Zaïnal
Concept & Development : Baudouin d'Aumeries
Co-Development & Prog : Marc-Olivier Méhu
Technical & hardware support : Manuel Goepfert

Contact : metmap@orbifly.com




SOURCES & CREDITS :

   NOAA